sensor_id;sensor_type;location;lat;lon;timestamp;P1;durP1;ratioP1;P2;durP2;ratioP2
23159;SDS011;11748;50.844;4.396;2023-05-10T00:00:14;16.05;;;7.22;;
23159;SDS011;11748;50.844;4.396;2023-05-10T00:02:40;8.73;;;6.43;;
23159;SDS011;11748;50.844;4.396;2023-05-10T00:05:06;11.32;;;6.40;;
23159;SDS011;11748;50.844;4.396;2023-05-10T00:07:32;14.65;;;7.38;;
23159;SDS011;11748;50.844;4.396;2023-05-10T00:09:59;11.82;;;6.68;;
23159;SDS011;11748;50.844;4.396;2023-05-10T00:12:24;12.05;;;6.78;;
23159;SDS011;11748;50.844;4.396;2023-05-10T00:14:50;13.60;;;7.50;;
23159;SDS011;11748;50.844;4.396;2023-05-10T00:17:18;15.10;;;7.75;;
23159;SDS011;11748;50.844;4.396;2023-05-10T00:19:43;11.68;;;6.88;;
23159;SDS011;11748;50.844;4.396;2023-05-10T00:22:09;9.52;;;7.32;;
23159;SDS011;11748;50.844;4.396;2023-05-10T00:24:35;11.68;;;7.10;;
23159;SDS011;11748;50.844;4.396;2023-05-10T00:27:01;13.43;;;7.90;;
23159;SDS011;11748;50.844;4.396;2023-05-10T00:29:29;12.90;;;7.22;;
23159;SDS011;11748;50.844;4.396;2023-05-10T00:31:55;11.88;;;7.63;;
23159;SDS011;11748;50.844;4.396;2023-05-10T00:34:21;13.80;;;8.77;;
23159;SDS011;11748;50.844;4.396;2023-05-10T00:36:48;13.50;;;8.30;;
23159;SDS011;11748;50.844;4.396;2023-05-10T00:39:15;13.82;;;7.88;;
23159;SDS011;11748;50.844;4.396;2023-05-10T00:41:41;15.05;;;8.10;;
23159;SDS011;11748;50.844;4.396;2023-05-10T00:44:08;13.70;;;7.65;;
23159;SDS011;11748;50.844;4.396;2023-05-10T00:46:34;14.95;;;8.30;;
23159;SDS011;11748;50.844;4.396;2023-05-10T00:49:00;12.73;;;8.00;;
23159;SDS011;11748;50.844;4.396;2023-05-10T00:51:26;11.30;;;7.82;;
23159;SDS011;11748;50.844;4.396;2023-05-10T00:53:52;14.15;;;8.70;;
23159;SDS011;11748;50.844;4.396;2023-05-10T00:56:18;12.57;;;8.18;;
23159;SDS011;11748;50.844;4.396;2023-05-10T00:58:47;13.30;;;8.55;;
23159;SDS011;11748;50.844;4.396;2023-05-10T01:01:14;11.55;;;8.55;;
23159;SDS011;11748;50.844;4.396;2023-05-10T01:03:40;13.55;;;8.60;;
23159;SDS011;11748;50.844;4.396;2023-05-10T01:06:08;13.80;;;8.45;;
23159;SDS011;11748;50.844;4.396;2023-05-10T01:08:35;12.82;;;8.52;;
23159;SDS011;11748;50.844;4.396;2023-05-10T01:11:02;16.13;;;9.07;;
23159;SDS011;11748;50.844;4.396;2023-05-10T01:13:35;17.17;;;8.50;;
23159;SDS011;11748;50.844;4.396;2023-05-10T01:16:02;17.67;;;8.85;;
23159;SDS011;11748;50.844;4.396;2023-05-10T01:18:29;13.18;;;8.82;;
23159;SDS011;11748;50.844;4.396;2023-05-10T01:23:59;15.05;;;9.25;;
23159;SDS011;11748;50.844;4.396;2023-05-10T01:32:51;14.07;;;10.32;;
23159;SDS011;11748;50.844;4.396;2023-05-10T01:35:22;16.85;;;10.30;;
23159;SDS011;11748;50.844;4.396;2023-05-10T01:41:12;15.77;;;10.38;;
23159;SDS011;11748;50.844;4.396;2023-05-10T01:46:51;15.60;;;10.90;;
23159;SDS011;11748;50.844;4.396;2023-05-10T01:49:26;13.90;;;10.27;;
23159;SDS011;11748;50.844;4.396;2023-05-10T01:52:00;13.45;;;9.55;;
23159;SDS011;11748;50.844;4.396;2023-05-10T01:54:34;16.52;;;10.35;;
23159;SDS011;11748;50.844;4.396;2023-05-10T01:57:03;14.98;;;10.13;;
23159;SDS011;11748;50.844;4.396;2023-05-10T01:59:34;14.13;;;10.48;;
23159;SDS011;11748;50.844;4.396;2023-05-10T02:02:05;13.50;;;9.60;;
23159;SDS011;11748;50.844;4.396;2023-05-10T02:04:33;14.95;;;10.15;;
23159;SDS011;11748;50.844;4.396;2023-05-10T02:07:02;15.70;;;10.30;;
23159;SDS011;11748;50.844;4.396;2023-05-10T02:09:30;16.80;;;10.57;;
23159;SDS011;11748;50.844;4.396;2023-05-10T02:11:59;20.40;;;10.27;;
23159;SDS011;11748;50.844;4.396;2023-05-10T02:14:27;16.77;;;10.57;;
23159;SDS011;11748;50.844;4.396;2023-05-10T02:16:59;13.93;;;9.80;;
23159;SDS011;11748;50.844;4.396;2023-05-10T02:19:27;14.48;;;10.50;;
23159;SDS011;11748;50.844;4.396;2023-05-10T02:21:55;15.70;;;10.68;;
23159;SDS011;11748;50.844;4.396;2023-05-10T02:24:22;16.45;;;11.10;;
23159;SDS011;11748;50.844;4.396;2023-05-10T02:26:49;14.80;;;11.13;;
23159;SDS011;11748;50.844;4.396;2023-05-10T02:29:19;15.05;;;10.25;;
23159;SDS011;11748;50.844;4.396;2023-05-10T02:31:48;19.45;;;11.18;;
23159;SDS011;11748;50.844;4.396;2023-05-10T02:34:16;20.10;;;10.55;;
23159;SDS011;11748;50.844;4.396;2023-05-10T02:36:42;15.32;;;10.75;;
23159;SDS011;11748;50.844;4.396;2023-05-10T02:39:08;14.07;;;10.02;;
23159;SDS011;11748;50.844;4.396;2023-05-10T02:41:38;15.52;;;10.48;;
23159;SDS011;11748;50.844;4.396;2023-05-10T02:44:07;16.65;;;9.98;;
23159;SDS011;11748;50.844;4.396;2023-05-10T02:46:34;14.52;;;9.05;;
23159;SDS011;11748;50.844;4.396;2023-05-10T02:49:00;12.73;;;9.20;;
23159;SDS011;11748;50.844;4.396;2023-05-10T02:51:28;14.48;;;9.55;;
23159;SDS011;11748;50.844;4.396;2023-05-10T02:53:56;12.77;;;9.30;;
23159;SDS011;11748;50.844;4.396;2023-05-10T02:56:28;12.70;;;9.50;;
23159;SDS011;11748;50.844;4.396;2023-05-10T02:59:00;14.07;;;8.48;;
23159;SDS011;11748;50.844;4.396;2023-05-10T03:01:26;14.45;;;9.27;;
23159;SDS011;11748;50.844;4.396;2023-05-10T03:03:51;14.75;;;8.90;;
23159;SDS011;11748;50.844;4.396;2023-05-10T03:06:17;14.77;;;9.45;;
23159;SDS011;11748;50.844;4.396;2023-05-10T03:08:43;16.85;;;9.73;;
23159;SDS011;11748;50.844;4.396;2023-05-10T03:14:21;14.45;;;9.60;;
23159;SDS011;11748;50.844;4.396;2023-05-10T03:17:10;16.20;;;9.25;;
23159;SDS011;11748;50.844;4.396;2023-05-10T03:19:51;16.73;;;10.38;;
23159;SDS011;11748;50.844;4.396;2023-05-10T03:22:31;18.02;;;9.73;;
23159;SDS011;11748;50.844;4.396;2023-05-10T03:25:04;15.30;;;9.20;;
23159;SDS011;11748;50.844;4.396;2023-05-10T03:27:31;16.58;;;10.27;;
23159;SDS011;11748;50.844;4.396;2023-05-10T03:29:58;17.20;;;11.20;;
23159;SDS011;11748;50.844;4.396;2023-05-10T03:32:26;19.27;;;12.18;;
23159;SDS011;11748;50.844;4.396;2023-05-10T03:34:55;19.45;;;12.27;;
23159;SDS011;11748;50.844;4.396;2023-05-10T03:37:20;19.48;;;11.63;;
23159;SDS011;11748;50.844;4.396;2023-05-10T03:39:46;15.65;;;11.68;;
23159;SDS011;11748;50.844;4.396;2023-05-10T03:42:12;19.27;;;11.52;;
23159;SDS011;11748;50.844;4.396;2023-05-10T03:44:40;17.55;;;12.48;;
23159;SDS011;11748;50.844;4.396;2023-05-10T03:47:06;18.67;;;12.00;;
23159;SDS011;11748;50.844;4.396;2023-05-10T03:49:32;19.42;;;12.73;;
23159;SDS011;11748;50.844;4.396;2023-05-10T03:51:57;19.65;;;12.25;;
23159;SDS011;11748;50.844;4.396;2023-05-10T03:54:23;18.95;;;12.82;;
23159;SDS011;11748;50.844;4.396;2023-05-10T03:56:48;22.85;;;14.70;;
23159;SDS011;11748;50.844;4.396;2023-05-10T03:59:15;22.83;;;13.68;;
23159;SDS011;11748;50.844;4.396;2023-05-10T04:01:41;23.33;;;13.85;;
23159;SDS011;11748;50.844;4.396;2023-05-10T04:04:06;20.70;;;13.68;;
23159;SDS011;11748;50.844;4.396;2023-05-10T04:06:32;19.08;;;13.13;;
23159;SDS011;11748;50.844;4.396;2023-05-10T04:08:58;23.88;;;13.50;;
23159;SDS011;11748;50.844;4.396;2023-05-10T04:11:25;22.48;;;14.68;;
23159;SDS011;11748;50.844;4.396;2023-05-10T04:13:51;23.55;;;14.15;;
23159;SDS011;11748;50.844;4.396;2023-05-10T04:16:17;20.40;;;13.77;;
23159;SDS011;11748;50.844;4.396;2023-05-10T04:18:42;24.70;;;15.50;;
23159;SDS011;11748;50.844;4.396;2023-05-10T04:21:14;24.63;;;14.75;;
23159;SDS011;11748;50.844;4.396;2023-05-10T04:23:40;22.20;;;14.15;;
23159;SDS011;11748;50.844;4.396;2023-05-10T04:26:06;21.80;;;14.15;;
23159;SDS011;11748;50.844;4.396;2023-05-10T04:28:31;25.35;;;16.10;;
23159;SDS011;11748;50.844;4.396;2023-05-10T04:31:01;22.20;;;15.13;;
23159;SDS011;11748;50.844;4.396;2023-05-10T04:33:31;22.20;;;15.27;;
23159;SDS011;11748;50.844;4.396;2023-05-10T04:35:57;22.27;;;15.77;;
23159;SDS011;11748;50.844;4.396;2023-05-10T04:38:23;23.85;;;14.88;;
23159;SDS011;11748;50.844;4.396;2023-05-10T04:40:49;23.90;;;15.48;;
23159;SDS011;11748;50.844;4.396;2023-05-10T04:43:15;26.92;;;16.67;;
23159;SDS011;11748;50.844;4.396;2023-05-10T04:45:41;26.33;;;16.02;;
23159;SDS011;11748;50.844;4.396;2023-05-10T04:48:06;26.50;;;16.52;;
23159;SDS011;11748;50.844;4.396;2023-05-10T04:50:32;26.15;;;15.98;;
23159;SDS011;11748;50.844;4.396;2023-05-10T04:52:58;23.13;;;16.27;;
23159;SDS011;11748;50.844;4.396;2023-05-10T04:55:24;27.73;;;16.75;;
23159;SDS011;11748;50.844;4.396;2023-05-10T04:57:49;24.38;;;15.30;;
23159;SDS011;11748;50.844;4.396;2023-05-10T05:00:15;23.58;;;16.40;;
23159;SDS011;11748;50.844;4.396;2023-05-10T05:02:44;24.30;;;16.52;;
23159;SDS011;11748;50.844;4.396;2023-05-10T05:05:13;25.20;;;16.80;;
23159;SDS011;11748;50.844;4.396;2023-05-10T05:07:39;28.40;;;17.35;;
23159;SDS011;11748;50.844;4.396;2023-05-10T05:10:06;27.65;;;17.52;;
23159;SDS011;11748;50.844;4.396;2023-05-10T05:12:33;24.83;;;17.50;;
23159;SDS011;11748;50.844;4.396;2023-05-10T05:14:59;28.98;;;17.63;;
23159;SDS011;11748;50.844;4.396;2023-05-10T05:17:26;26.17;;;17.38;;
23159;SDS011;11748;50.844;4.396;2023-05-10T05:19:51;24.10;;;17.05;;
23159;SDS011;11748;50.844;4.396;2023-05-10T05:22:17;26.17;;;17.58;;
23159;SDS011;11748;50.844;4.396;2023-05-10T05:24:44;24.60;;;17.10;;
23159;SDS011;11748;50.844;4.396;2023-05-10T05:27:10;27.88;;;18.15;;
23159;SDS011;11748;50.844;4.396;2023-05-10T05:29:35;27.88;;;17.38;;
23159;SDS011;11748;50.844;4.396;2023-05-10T05:32:02;23.52;;;14.68;;
23159;SDS011;11748;50.844;4.396;2023-05-10T05:34:28;19.85;;;12.80;;
23159;SDS011;11748;50.844;4.396;2023-05-10T05:36:53;18.25;;;11.40;;
23159;SDS011;11748;50.844;4.396;2023-05-10T05:39:19;14.77;;;9.88;;
23159;SDS011;11748;50.844;4.396;2023-05-10T05:41:46;14.85;;;10.35;;
23159;SDS011;11748;50.844;4.396;2023-05-10T05:44:11;13.45;;;9.30;;
23159;SDS011;11748;50.844;4.396;2023-05-10T05:46:37;15.38;;;9.88;;
23159;SDS011;11748;50.844;4.396;2023-05-10T05:49:03;14.98;;;9.10;;
23159;SDS011;11748;50.844;4.396;2023-05-10T05:51:29;17.25;;;8.95;;
23159;SDS011;11748;50.844;4.396;2023-05-10T05:53:55;14.80;;;9.70;;
23159;SDS011;11748;50.844;4.396;2023-05-10T05:56:21;14.40;;;9.95;;
23159;SDS011;11748;50.844;4.396;2023-05-10T05:58:52;14.30;;;9.60;;
23159;SDS011;11748;50.844;4.396;2023-05-10T06:01:17;11.38;;;8.32;;
23159;SDS011;11748;50.844;4.396;2023-05-10T06:03:43;15.40;;;9.18;;
23159;SDS011;11748;50.844;4.396;2023-05-10T06:06:09;14.60;;;10.20;;
23159;SDS011;11748;50.844;4.396;2023-05-10T06:08:35;17.92;;;10.43;;
23159;SDS011;11748;50.844;4.396;2023-05-10T06:11:01;15.85;;;11.35;;
23159;SDS011;11748;50.844;4.396;2023-05-10T06:13:27;19.92;;;11.60;;
23159;SDS011;11748;50.844;4.396;2023-05-10T06:16:00;16.98;;;11.00;;
23159;SDS011;11748;50.844;4.396;2023-05-10T06:18:26;18.50;;;11.18;;
23159;SDS011;11748;50.844;4.396;2023-05-10T06:20:51;18.75;;;11.30;;
23159;SDS011;11748;50.844;4.396;2023-05-10T06:23:17;16.58;;;9.35;;
23159;SDS011;11748;50.844;4.396;2023-05-10T06:25:43;17.38;;;8.77;;
23159;SDS011;11748;50.844;4.396;2023-05-10T06:28:08;17.02;;;7.47;;
23159;SDS011;11748;50.844;4.396;2023-05-10T06:30:35;12.13;;;7.40;;
23159;SDS011;11748;50.844;4.396;2023-05-10T06:33:01;10.60;;;7.03;;
23159;SDS011;11748;50.844;4.396;2023-05-10T06:35:27;12.68;;;6.40;;
23159;SDS011;11748;50.844;4.396;2023-05-10T06:37:53;10.77;;;6.65;;
23159;SDS011;11748;50.844;4.396;2023-05-10T06:40:19;10.13;;;6.05;;
23159;SDS011;11748;50.844;4.396;2023-05-10T06:42:45;8.23;;;5.15;;
23159;SDS011;11748;50.844;4.396;2023-05-10T06:45:12;8.23;;;4.68;;
23159;SDS011;11748;50.844;4.396;2023-05-10T06:47:39;6.95;;;4.15;;
23159;SDS011;11748;50.844;4.396;2023-05-10T06:50:05;5.40;;;4.70;;
23159;SDS011;11748;50.844;4.396;2023-05-10T06:52:32;8.88;;;4.30;;
23159;SDS011;11748;50.844;4.396;2023-05-10T06:54:57;8.93;;;5.28;;
23159;SDS011;11748;50.844;4.396;2023-05-10T06:57:23;7.82;;;5.03;;
23159;SDS011;11748;50.844;4.396;2023-05-10T06:59:49;13.02;;;5.78;;
23159;SDS011;11748;50.844;4.396;2023-05-10T07:02:16;8.25;;;5.53;;
23159;SDS011;11748;50.844;4.396;2023-05-10T07:04:42;12.43;;;6.80;;
23159;SDS011;11748;50.844;4.396;2023-05-10T07:07:07;9.30;;;6.78;;
23159;SDS011;11748;50.844;4.396;2023-05-10T07:09:33;10.95;;;6.43;;
23159;SDS011;11748;50.844;4.396;2023-05-10T07:11:59;10.82;;;7.30;;
23159;SDS011;11748;50.844;4.396;2023-05-10T07:14:26;14.90;;;8.38;;
23159;SDS011;11748;50.844;4.396;2023-05-10T07:16:52;14.77;;;7.95;;
23159;SDS011;11748;50.844;4.396;2023-05-10T07:19:18;14.20;;;8.20;;
23159;SDS011;11748;50.844;4.396;2023-05-10T07:21:44;16.38;;;8.40;;
23159;SDS011;11748;50.844;4.396;2023-05-10T07:24:10;13.85;;;8.50;;
23159;SDS011;11748;50.844;4.396;2023-05-10T07:26:36;13.73;;;8.30;;
23159;SDS011;11748;50.844;4.396;2023-05-10T07:29:02;11.27;;;8.88;;
23159;SDS011;11748;50.844;4.396;2023-05-10T07:31:27;18.70;;;8.63;;
23159;SDS011;11748;50.844;4.396;2023-05-10T07:33:53;16.80;;;9.30;;
23159;SDS011;11748;50.844;4.396;2023-05-10T07:36:19;15.32;;;8.57;;
23159;SDS011;11748;50.844;4.396;2023-05-10T07:38:45;19.75;;;8.98;;
23159;SDS011;11748;50.844;4.396;2023-05-10T07:41:13;17.70;;;8.38;;
23159;SDS011;11748;50.844;4.396;2023-05-10T07:43:39;18.10;;;8.75;;
23159;SDS011;11748;50.844;4.396;2023-05-10T07:46:05;13.98;;;8.85;;
23159;SDS011;11748;50.844;4.396;2023-05-10T07:48:30;10.93;;;7.82;;
23159;SDS011;11748;50.844;4.396;2023-05-10T07:50:56;14.95;;;8.13;;
23159;SDS011;11748;50.844;4.396;2023-05-10T07:53:22;13.73;;;7.90;;
23159;SDS011;11748;50.844;4.396;2023-05-10T07:55:51;14.52;;;8.93;;
23159;SDS011;11748;50.844;4.396;2023-05-10T07:58:19;12.00;;;8.00;;
23159;SDS011;11748;50.844;4.396;2023-05-10T08:00:45;10.68;;;7.25;;
23159;SDS011;11748;50.844;4.396;2023-05-10T08:03:10;12.50;;;8.00;;
23159;SDS011;11748;50.844;4.396;2023-05-10T08:05:36;8.63;;;7.00;;
23159;SDS011;11748;50.844;4.396;2023-05-10T08:08:02;14.30;;;7.78;;
23159;SDS011;11748;50.844;4.396;2023-05-10T08:10:27;14.55;;;7.50;;
23159;SDS011;11748;50.844;4.396;2023-05-10T08:12:53;13.13;;;8.65;;
23159;SDS011;11748;50.844;4.396;2023-05-10T08:15:19;11.32;;;7.40;;
23159;SDS011;11748;50.844;4.396;2023-05-10T08:17:44;10.98;;;7.03;;
23159;SDS011;11748;50.844;4.396;2023-05-10T08:20:10;13.32;;;7.85;;
23159;SDS011;11748;50.844;4.396;2023-05-10T08:22:37;10.82;;;6.88;;
23159;SDS011;11748;50.844;4.396;2023-05-10T08:25:03;11.18;;;6.90;;
23159;SDS011;11748;50.844;4.396;2023-05-10T08:27:29;15.15;;;6.75;;
23159;SDS011;11748;50.844;4.396;2023-05-10T08:29:54;8.57;;;6.30;;
23159;SDS011;11748;50.844;4.396;2023-05-10T08:32:20;8.88;;;6.13;;
23159;SDS011;11748;50.844;4.396;2023-05-10T08:34:46;7.53;;;6.22;;
23159;SDS011;11748;50.844;4.396;2023-05-10T08:37:12;6.95;;;5.78;;
23159;SDS011;11748;50.844;4.396;2023-05-10T08:39:37;8.55;;;5.18;;
23159;SDS011;11748;50.844;4.396;2023-05-10T08:42:04;7.95;;;5.32;;
23159;SDS011;11748;50.844;4.396;2023-05-10T08:44:33;9.85;;;5.25;;
23159;SDS011;11748;50.844;4.396;2023-05-10T08:47:02;8.63;;;5.72;;
23159;SDS011;11748;50.844;4.396;2023-05-10T08:49:30;6.63;;;4.63;;
23159;SDS011;11748;50.844;4.396;2023-05-10T08:51:57;7.25;;;4.63;;
23159;SDS011;11748;50.844;4.396;2023-05-10T08:54:28;6.70;;;4.88;;
23159;SDS011;11748;50.844;4.396;2023-05-10T08:56:54;5.82;;;4.45;;
23159;SDS011;11748;50.844;4.396;2023-05-10T08:59:21;5.18;;;4.53;;
23159;SDS011;11748;50.844;4.396;2023-05-10T09:01:47;7.18;;;5.10;;
23159;SDS011;11748;50.844;4.396;2023-05-10T09:04:14;5.95;;;4.93;;
23159;SDS011;11748;50.844;4.396;2023-05-10T09:06:40;6.60;;;5.00;;
23159;SDS011;11748;50.844;4.396;2023-05-10T09:09:06;7.32;;;5.57;;
23159;SDS011;11748;50.844;4.396;2023-05-10T09:11:32;6.65;;;5.55;;
23159;SDS011;11748;50.844;4.396;2023-05-10T09:13:58;7.32;;;5.47;;
23159;SDS011;11748;50.844;4.396;2023-05-10T09:16:24;9.18;;;5.60;;
23159;SDS011;11748;50.844;4.396;2023-05-10T09:18:49;9.57;;;5.72;;
23159;SDS011;11748;50.844;4.396;2023-05-10T09:21:15;7.20;;;5.65;;
23159;SDS011;11748;50.844;4.396;2023-05-10T09:23:44;9.52;;;6.40;;
23159;SDS011;11748;50.844;4.396;2023-05-10T09:26:11;9.20;;;5.68;;
23159;SDS011;11748;50.844;4.396;2023-05-10T09:28:53;6.60;;;5.10;;
23159;SDS011;11748;50.844;4.396;2023-05-10T09:31:21;7.75;;;5.18;;
23159;SDS011;11748;50.844;4.396;2023-05-10T09:33:47;6.90;;;5.20;;
23159;SDS011;11748;50.844;4.396;2023-05-10T09:36:14;7.80;;;4.78;;
23159;SDS011;11748;50.844;4.396;2023-05-10T09:38:50;7.60;;;5.03;;
23159;SDS011;11748;50.844;4.396;2023-05-10T09:43:44;4.97;;;4.10;;
23159;SDS011;11748;50.844;4.396;2023-05-10T09:46:09;5.93;;;3.90;;
23159;SDS011;11748;50.844;4.396;2023-05-10T09:48:40;5.20;;;4.15;;
23159;SDS011;11748;50.844;4.396;2023-05-10T09:51:07;4.72;;;3.72;;
23159;SDS011;11748;50.844;4.396;2023-05-10T09:53:33;4.38;;;3.58;;
23159;SDS011;11748;50.844;4.396;2023-05-10T09:55:59;5.07;;;3.75;;
23159;SDS011;11748;50.844;4.396;2023-05-10T09:58:26;3.97;;;3.58;;
23159;SDS011;11748;50.844;4.396;2023-05-10T10:00:52;6.30;;;4.03;;
23159;SDS011;11748;50.844;4.396;2023-05-10T10:03:20;5.75;;;4.07;;
23159;SDS011;11748;50.844;4.396;2023-05-10T10:05:46;5.50;;;4.43;;
23159;SDS011;11748;50.844;4.396;2023-05-10T10:08:13;6.00;;;4.45;;
23159;SDS011;11748;50.844;4.396;2023-05-10T10:10:40;4.97;;;4.47;;
23159;SDS011;11748;50.844;4.396;2023-05-10T10:13:06;4.57;;;4.07;;
23159;SDS011;11748;50.844;4.396;2023-05-10T10:15:33;5.65;;;4.75;;
23159;SDS011;11748;50.844;4.396;2023-05-10T10:17:59;6.63;;;4.38;;
23159;SDS011;11748;50.844;4.396;2023-05-10T10:20:26;5.63;;;4.80;;
23159;SDS011;11748;50.844;4.396;2023-05-10T10:22:52;6.25;;;4.65;;
23159;SDS011;11748;50.844;4.396;2023-05-10T10:25:18;5.05;;;4.32;;
23159;SDS011;11748;50.844;4.396;2023-05-10T10:30:21;5.68;;;5.05;;
23159;SDS011;11748;50.844;4.396;2023-05-10T10:35:44;5.93;;;4.47;;
23159;SDS011;11748;50.844;4.396;2023-05-10T10:38:12;8.57;;;5.03;;
23159;SDS011;11748;50.844;4.396;2023-05-10T10:40:38;6.38;;;5.13;;
23159;SDS011;11748;50.844;4.396;2023-05-10T10:48:35;5.85;;;4.53;;
23159;SDS011;11748;50.844;4.396;2023-05-10T10:51:01;6.25;;;3.92;;
23159;SDS011;11748;50.844;4.396;2023-05-10T10:53:28;5.13;;;4.10;;
23159;SDS011;11748;50.844;4.396;2023-05-10T10:56:07;5.05;;;3.83;;
23159;SDS011;11748;50.844;4.396;2023-05-10T10:58:34;4.47;;;3.67;;
23159;SDS011;11748;50.844;4.396;2023-05-10T11:03:40;6.25;;;3.80;;
23159;SDS011;11748;50.844;4.396;2023-05-10T11:06:30;4.78;;;3.88;;
23159;SDS011;11748;50.844;4.396;2023-05-10T11:08:57;4.32;;;3.92;;
23159;SDS011;11748;50.844;4.396;2023-05-10T11:11:24;5.00;;;4.03;;
23159;SDS011;11748;50.844;4.396;2023-05-10T11:13:50;5.18;;;3.58;;
23159;SDS011;11748;50.844;4.396;2023-05-10T11:16:23;6.18;;;4.20;;
23159;SDS011;11748;50.844;4.396;2023-05-10T11:18:53;6.18;;;3.85;;
23159;SDS011;11748;50.844;4.396;2023-05-10T11:21:29;7.30;;;4.28;;
23159;SDS011;11748;50.844;4.396;2023-05-10T11:23:56;5.95;;;3.72;;
23159;SDS011;11748;50.844;4.396;2023-05-10T11:26:41;6.38;;;4.32;;
23159;SDS011;11748;50.844;4.396;2023-05-10T11:29:07;4.57;;;3.75;;
23159;SDS011;11748;50.844;4.396;2023-05-10T11:31:33;5.25;;;3.92;;
23159;SDS011;11748;50.844;4.396;2023-05-10T11:33:59;5.13;;;4.55;;
23159;SDS011;11748;50.844;4.396;2023-05-10T11:36:29;4.60;;;3.50;;
23159;SDS011;11748;50.844;4.396;2023-05-10T11:38:59;6.60;;;4.30;;
23159;SDS011;11748;50.844;4.396;2023-05-10T11:41:25;4.90;;;3.90;;
23159;SDS011;11748;50.844;4.396;2023-05-10T11:43:53;3.97;;;3.53;;
23159;SDS011;11748;50.844;4.396;2023-05-10T11:46:20;4.93;;;4.07;;
23159;SDS011;11748;50.844;4.396;2023-05-10T11:48:52;4.70;;;3.75;;
23159;SDS011;11748;50.844;4.396;2023-05-10T11:51:22;4.10;;;3.70;;
23159;SDS011;11748;50.844;4.396;2023-05-10T11:53:49;4.53;;;3.50;;
23159;SDS011;11748;50.844;4.396;2023-05-10T11:56:16;5.18;;;3.85;;
23159;SDS011;11748;50.844;4.396;2023-05-10T11:58:41;5.82;;;3.45;;
23159;SDS011;11748;50.844;4.396;2023-05-10T12:01:07;4.68;;;4.00;;
23159;SDS011;11748;50.844;4.396;2023-05-10T12:03:34;4.60;;;3.50;;
23159;SDS011;11748;50.844;4.396;2023-05-10T12:06:00;6.07;;;3.80;;
23159;SDS011;11748;50.844;4.396;2023-05-10T12:08:26;5.65;;;3.78;;
23159;SDS011;11748;50.844;4.396;2023-05-10T12:11:02;6.05;;;4.60;;
23159;SDS011;11748;50.844;4.396;2023-05-10T12:13:37;5.78;;;4.82;;
23159;SDS011;11748;50.844;4.396;2023-05-10T12:16:17;8.18;;;5.25;;
23159;SDS011;11748;50.844;4.396;2023-05-10T12:18:51;6.93;;;5.90;;
23159;SDS011;11748;50.844;4.396;2023-05-10T12:21:18;6.05;;;5.10;;
23159;SDS011;11748;50.844;4.396;2023-05-10T12:23:45;7.72;;;5.97;;
23159;SDS011;11748;50.844;4.396;2023-05-10T12:26:12;6.80;;;5.28;;
23159;SDS011;11748;50.844;4.396;2023-05-10T12:28:38;6.45;;;5.13;;
23159;SDS011;11748;50.844;4.396;2023-05-10T12:31:07;6.05;;;5.15;;
23159;SDS011;11748;50.844;4.396;2023-05-10T12:33:36;7.57;;;4.50;;
23159;SDS011;11748;50.844;4.396;2023-05-10T12:36:09;6.50;;;5.13;;
23159;SDS011;11748;50.844;4.396;2023-05-10T12:38:38;7.38;;;5.03;;
23159;SDS011;11748;50.844;4.396;2023-05-10T12:41:08;8.13;;;4.95;;
23159;SDS011;11748;50.844;4.396;2023-05-10T12:43:38;7.90;;;5.10;;
23159;SDS011;11748;50.844;4.396;2023-05-10T12:46:15;7.18;;;5.13;;
23159;SDS011;11748;50.844;4.396;2023-05-10T12:48:42;6.07;;;5.30;;
23159;SDS011;11748;50.844;4.396;2023-05-10T12:51:09;6.75;;;5.43;;
23159;SDS011;11748;50.844;4.396;2023-05-10T12:53:37;9.93;;;5.78;;
23159;SDS011;11748;50.844;4.396;2023-05-10T12:56:03;8.48;;;5.82;;
23159;SDS011;11748;50.844;4.396;2023-05-10T12:58:29;7.75;;;5.43;;
23159;SDS011;11748;50.844;4.396;2023-05-10T13:00:55;6.47;;;4.63;;
23159;SDS011;11748;50.844;4.396;2023-05-10T13:03:21;7.65;;;4.55;;
23159;SDS011;11748;50.844;4.396;2023-05-10T13:05:47;5.93;;;4.22;;
23159;SDS011;11748;50.844;4.396;2023-05-10T13:08:13;5.57;;;4.28;;
23159;SDS011;11748;50.844;4.396;2023-05-10T13:10:39;4.68;;;3.90;;
23159;SDS011;11748;50.844;4.396;2023-05-10T13:13:05;3.92;;;3.20;;
23159;SDS011;11748;50.844;4.396;2023-05-10T13:15:32;4.88;;;3.55;;
23159;SDS011;11748;50.844;4.396;2023-05-10T13:17:58;7.28;;;3.80;;
23159;SDS011;11748;50.844;4.396;2023-05-10T13:20:24;4.45;;;3.20;;
23159;SDS011;11748;50.844;4.396;2023-05-10T13:22:50;5.32;;;3.05;;
23159;SDS011;11748;50.844;4.396;2023-05-10T13:25:16;3.53;;;3.05;;
23159;SDS011;11748;50.844;4.396;2023-05-10T13:27:42;5.68;;;2.60;;
23159;SDS011;11748;50.844;4.396;2023-05-10T13:30:08;6.53;;;3.45;;
23159;SDS011;11748;50.844;4.396;2023-05-10T13:32:34;4.25;;;3.25;;
23159;SDS011;11748;50.844;4.396;2023-05-10T13:35:00;3.70;;;3.13;;
23159;SDS011;11748;50.844;4.396;2023-05-10T13:37:28;4.00;;;3.00;;
23159;SDS011;11748;50.844;4.396;2023-05-10T13:39:54;5.68;;;4.20;;
23159;SDS011;11748;50.844;4.396;2023-05-10T13:42:20;7.35;;;4.70;;
23159;SDS011;11748;50.844;4.396;2023-05-10T13:44:46;5.47;;;4.60;;
23159;SDS011;11748;50.844;4.396;2023-05-10T13:47:12;8.15;;;5.00;;
23159;SDS011;11748;50.844;4.396;2023-05-10T13:49:37;6.30;;;4.32;;
23159;SDS011;11748;50.844;4.396;2023-05-10T13:52:03;7.00;;;4.80;;
23159;SDS011;11748;50.844;4.396;2023-05-10T13:54:32;6.85;;;4.82;;
23159;SDS011;11748;50.844;4.396;2023-05-10T13:57:01;6.57;;;4.90;;
23159;SDS011;11748;50.844;4.396;2023-05-10T13:59:26;6.05;;;4.53;;
23159;SDS011;11748;50.844;4.396;2023-05-10T14:01:52;6.68;;;4.88;;
23159;SDS011;11748;50.844;4.396;2023-05-10T14:04:17;7.90;;;5.68;;
23159;SDS011;11748;50.844;4.396;2023-05-10T14:06:43;7.25;;;5.97;;
23159;SDS011;11748;50.844;4.396;2023-05-10T14:09:09;8.52;;;5.82;;
23159;SDS011;11748;50.844;4.396;2023-05-10T14:11:34;8.18;;;6.60;;
23159;SDS011;11748;50.844;4.396;2023-05-10T14:14:00;9.45;;;7.00;;
23159;SDS011;11748;50.844;4.396;2023-05-10T14:16:26;10.82;;;7.95;;
23159;SDS011;11748;50.844;4.396;2023-05-10T14:18:52;9.45;;;8.13;;
23159;SDS011;11748;50.844;4.396;2023-05-10T14:21:17;10.88;;;7.90;;
23159;SDS011;11748;50.844;4.396;2023-05-10T14:23:43;10.43;;;8.05;;
23159;SDS011;11748;50.844;4.396;2023-05-10T14:26:09;9.93;;;8.25;;
23159;SDS011;11748;50.844;4.396;2023-05-10T14:28:34;12.30;;;9.80;;
23159;SDS011;11748;50.844;4.396;2023-05-10T14:31:00;11.05;;;8.88;;
23159;SDS011;11748;50.844;4.396;2023-05-10T14:33:26;10.95;;;9.18;;
23159;SDS011;11748;50.844;4.396;2023-05-10T14:35:54;11.90;;;8.93;;
23159;SDS011;11748;50.844;4.396;2023-05-10T14:38:21;11.15;;;8.43;;
23159;SDS011;11748;50.844;4.396;2023-05-10T14:40:47;11.93;;;8.52;;
23159;SDS011;11748;50.844;4.396;2023-05-10T14:43:13;11.57;;;8.32;;
23159;SDS011;11748;50.844;4.396;2023-05-10T14:45:38;11.63;;;8.27;;
23159;SDS011;11748;50.844;4.396;2023-05-10T14:48:04;12.25;;;8.80;;
23159;SDS011;11748;50.844;4.396;2023-05-10T14:50:30;12.15;;;8.70;;
23159;SDS011;11748;50.844;4.396;2023-05-10T14:52:56;12.50;;;9.07;;
23159;SDS011;11748;50.844;4.396;2023-05-10T14:55:24;14.73;;;9.20;;
23159;SDS011;11748;50.844;4.396;2023-05-10T14:57:49;14.48;;;9.73;;
23159;SDS011;11748;50.844;4.396;2023-05-10T15:00:15;12.20;;;9.02;;
23159;SDS011;11748;50.844;4.396;2023-05-10T15:02:42;13.80;;;9.50;;
23159;SDS011;11748;50.844;4.396;2023-05-10T15:05:07;9.77;;;7.88;;
23159;SDS011;11748;50.844;4.396;2023-05-10T15:07:33;10.52;;;7.32;;
23159;SDS011;11748;50.844;4.396;2023-05-10T15:09:59;10.68;;;7.03;;